Aviation Digital Data Service (ADDS)

Output produced by METARs form (0632 UTC 03 July 2022)
found at http://www.aviationweather.gov/metar/data/
 
METAR text: KRNH 030615Z AUTO 15003KT 7SM CLR 15/13 A3010 RMK AO2 T01500133
Conditions at: KRNH (NEW RICHMOND MUN, WI, US) observed 0615 UTC 03 July 2022
Temperature: 15.0°C (59°F)
Dewpoint: 13.3°C (56°F) [RH = 90%]
Pressure (altimeter): 30.10 inches Hg (1019.4 mb)
Winds: from the SSE (150 degrees) at 3 MPH (3 knots; 1.5 m/s)
Visibility: 7 miles (11 km)
Ceiling: at least 12,000 feet AGL
Clouds: sky clear below 12,000 feet AGL
Weather: automated observation with no human augmentation;
there may or may not be significant weather present at this time

METAR text: KRNH 030555Z AUTO 00000KT 7SM CLR 15/13 A3009 RMK AO2 T01500133 10231 20148 402330126
Conditions at: KRNH (NEW RICHMOND MUN, WI, US) observed 0555 UTC 03 July 2022
Temperature: 15.0°C (59°F)
Dewpoint: 13.3°C (56°F) [RH = 90%]
Pressure (altimeter): 30.09 inches Hg (1019.0 mb)
Winds: calm
Visibility: 7 miles (11 km)
Ceiling: at least 12,000 feet AGL
Clouds: sky clear below 12,000 feet AGL
Weather: automated observation with no human augmentation;
there may or may not be significant weather present at this time

METAR text: KRNH 030535Z AUTO 11003KT 7SM CLR 15/14 A3009 RMK AO2 T01500135
Conditions at: KRNH (NEW RICHMOND MUN, WI, US) observed 0535 UTC 03 July 2022
Temperature: 15.0°C (59°F)
Dewpoint: 13.5°C (56°F) [RH = 91%]
Pressure (altimeter): 30.09 inches Hg (1019.0 mb)
Winds: from the ESE (110 degrees) at 3 MPH (3 knots; 1.5 m/s)
Visibility: 7 miles (11 km)
Ceiling: at least 12,000 feet AGL
Clouds: sky clear below 12,000 feet AGL
Weather: automated observation with no human augmentation;
there may or may not be significant weather present at this time

Forecast for: KRNH (NEW RICHMOND MUN, WI, US)
Text: KRNH 030520Z 0306/0406 VRB03KT P6SM SCT200
Forecast period: 0600 to 1400 UTC 03 July 2022
Forecast type: FROM: standard forecast or significant change
Winds: variable direction winds at 3 MPH (3 knots; 1.5 m/s)
Visibility: 6 or more miles (10+ km)
Ceiling: at least 12,000 feet AGL
Clouds: scattered clouds at 20000 feet AGL
Weather: no significant weather forecast for this period
Text: FM031400 17006KT P6SM FEW070 SCT200
Forecast period: 1400 UTC 03 July 2022 to 0600 UTC 04 July 2022
Forecast type: FROM: standard forecast or significant change
Winds: from the S (170 degrees) at 7 MPH (6 knots; 3.1 m/s)
Visibility: 6 or more miles (10+ km)
Ceiling: at least 12,000 feet AGL
Clouds: few clouds at 7000 feet AGL
scattered clouds at 20000 feet AGL
Weather: no significant weather forecast for this period